Time;durP1;ratioP1;P1;durP2;ratioP2;P2;SDS_P1;SDS_P2;PMS_P1;PMS_P2;Temp;Humidity;BMP_temperature;BMP_pressure;BME280_temperature;BME280_humidity;BME280_pressure;Samples;Min_cycle;Max_cycle;Signal;HPM_P1;HPM_P2
2023/09/20 00:01:41;;;;;;;8.30;4.25;;;20.20;58.60;;;;;;5009252;28;114948;-79
2023/09/20 00:04:09;;;;;;;8.25;4.00;;;20.20;58.60;;;;;;5009802;28;114643;-78
2023/09/20 00:06:36;;;;;;;9.45;4.70;;;20.20;58.70;;;;;;5010510;28;114355;-78
2023/09/20 00:09:04;;;;;;;9.52;5.50;;;20.20;58.70;;;;;;5028404;28;114040;-80
2023/09/20 00:11:32;;;;;;;9.48;5.20;;;20.30;58.50;;;;;;5009484;28;114920;-79
2023/09/20 00:13:59;;;;;;;9.45;4.90;;;20.30;58.60;;;;;;5008924;28;117467;-79
2023/09/20 00:16:29;;;;;;;8.10;4.90;;;20.30;58.50;;;;;;5028212;28;114119;-80
2023/09/20 00:18:56;;;;;;;10.55;4.75;;;20.30;58.40;;;;;;5011348;28;114345;-80
2023/09/20 00:21:23;;;;;;;8.55;5.07;;;20.30;58.50;;;;;;5008994;28;116972;-80
2023/09/20 00:23:51;;;;;;;7.13;4.40;;;20.30;58.40;;;;;;5027022;28;114870;-79
2023/09/20 00:26:19;;;;;;;9.50;4.85;;;20.30;58.40;;;;;;5027356;28;114153;-79
2023/09/20 00:28:49;;;;;;;7.40;4.00;;;20.40;58.30;;;;;;5027912;28;114311;-79
2023/09/20 00:31:16;;;;;;;8.48;4.50;;;20.40;58.30;;;;;;5009205;28;115211;-78
2023/09/20 00:33:43;;;;;;;8.43;4.95;;;20.40;58.20;;;;;;4992632;28;114667;-79
2023/09/20 00:36:18;;;;;;;8.70;4.60;;;20.40;58.10;;;;;;5008512;28;114509;-79
2023/09/20 00:38:47;;;;;;;8.00;4.75;;;20.40;58.10;;;;;;5027525;28;114241;-79
2023/09/20 00:41:15;;;;;;;10.02;5.32;;;20.40;58.20;;;;;;5007737;28;114930;-79
2023/09/20 00:43:42;;;;;;;11.60;4.57;;;20.40;57.80;;;;;;5009118;28;114620;-79
2023/09/20 00:46:11;;;;;;;8.63;4.65;;;20.30;58.10;;;;;;5009675;28;114294;-79
2023/09/20 00:48:39;;;;;;;9.02;4.43;;;20.30;58.10;;;;;;4977213;28;114410;-79
2023/09/20 00:51:07;;;;;;;10.00;4.53;;;20.30;58.20;;;;;;5026573;28;115006;-78
2023/09/20 00:53:35;;;;;;;8.98;4.80;;;20.30;58.10;;;;;;4992350;28;114599;-79
2023/09/20 00:56:04;;;;;;;9.63;4.95;;;20.30;58.20;;;;;;4992621;28;114374;-79
2023/09/20 00:58:34;;;;;;;8.25;4.43;;;20.30;58.00;;;;;;5011151;28;114424;-79
2023/09/20 01:01:04;;;;;;;7.65;4.20;;;20.30;58.20;;;;;;4992784;28;115473;-79
2023/09/20 01:03:32;;;;;;;6.60;4.15;;;20.30;58.20;;;;;;5008923;28;114620;-79
2023/09/20 01:06:02;;;;;;;9.27;5.00;;;20.30;58.20;;;;;;5010126;28;114495;-78
2023/09/20 01:08:35;;;;;;;9.82;5.05;;;20.30;58.00;;;;;;4977860;28;114347;-79
2023/09/20 01:11:02;;;;;;;10.05;4.50;;;20.30;57.80;;;;;;4992972;28;115474;-79
2023/09/20 01:13:30;;;;;;;9.10;4.60;;;20.30;58.10;;;;;;5026838;28;114796;-79
2023/09/20 01:16:01;;;;;;;8.82;4.60;;;20.30;57.90;;;;;;5008157;28;114386;-79
2023/09/20 01:18:29;;;;;;;9.18;4.82;;;20.30;58.20;;;;;;5026575;28;114188;-79
2023/09/20 01:20:56;;;;;;;8.00;4.38;;;20.30;58.10;;;;;;5008120;28;114997;-78
2023/09/20 01:23:23;;;;;;;8.73;4.65;;;20.30;58.10;;;;;;5025313;28;114539;-80
2023/09/20 01:25:51;;;;;;;7.45;4.22;;;20.30;58.20;;;;;;5009034;28;114451;-80
2023/09/20 01:28:18;;;;;;;7.85;4.55;;;20.30;57.90;;;;;;5027393;28;113880;-79
2023/09/20 01:30:50;;;;;;;8.60;4.18;;;20.30;57.70;;;;;;4975090;27;115524;-80
2023/09/20 01:33:17;;;;;;;8.82;4.78;;;20.30;58.00;;;;;;5007981;28;114142;-79
2023/09/20 01:35:47;;;;;;;8.50;4.18;;;20.30;57.40;;;;;;5009908;28;114417;-79
2023/09/20 01:38:14;;;;;;;8.30;4.20;;;20.20;57.80;;;;;;5028135;28;114252;-80
2023/09/20 01:40:42;;;;;;;8.68;4.63;;;20.20;58.00;;;;;;5026009;28;115526;-80
2023/09/20 01:43:11;;;;;;;9.48;4.25;;;20.10;58.10;;;;;;5008657;28;114685;-79
2023/09/20 01:45:42;;;;;;;7.78;4.28;;;20.10;57.70;;;;;;5027395;28;114058;-80
2023/09/20 01:48:11;;;;;;;8.20;4.13;;;20.00;58.40;;;;;;5010203;28;114253;-79
2023/09/20 01:50:41;;;;;;;8.05;4.05;;;20.00;58.50;;;;;;5008893;28;117527;-79
2023/09/20 01:53:10;;;;;;;8.43;5.32;;;20.00;58.50;;;;;;4992415;28;114509;-79
2023/09/20 01:55:44;;;;;;;7.38;3.97;;;20.00;57.30;;;;;;5008346;28;114328;-79
2023/09/20 01:58:14;;;;;;;7.20;4.07;;;20.00;58.20;;;;;;4993846;28;114349;-79
2023/09/20 02:00:43;;;;;;;7.47;4.35;;;19.90;58.20;;;;;;5026314;28;115051;-79
2023/09/20 02:03:14;;;;;;;7.90;4.32;;;19.80;57.80;;;;;;5008046;28;114700;-79
2023/09/20 02:05:48;;;;;;;6.93;3.78;;;19.80;58.30;;;;;;5009107;28;114131;-80
2023/09/20 02:08:17;;;;;;;10.80;4.05;;;19.70;58.50;;;;;;4993628;28;114197;-79
2023/09/20 02:10:45;;;;;;;8.80;4.65;;;19.70;58.70;;;;;;5025684;28;114967;-79
2023/09/20 02:13:15;;;;;;;7.50;3.60;;;19.70;58.70;;;;;;4991524;28;114634;-79
2023/09/20 02:15:43;;;;;;;10.55;4.82;;;19.70;58.90;;;;;;4992884;28;114575;-80
2023/09/20 02:18:11;;;;;;;9.38;4.28;;;19.70;58.30;;;;;;4991539;28;114294;-80
2023/09/20 02:20:38;;;;;;;6.90;4.07;;;19.70;58.70;;;;;;4991206;28;115170;-79
2023/09/20 02:23:08;;;;;;;8.45;3.92;;;19.70;58.80;;;;;;5007531;28;117954;-79
2023/09/20 02:25:35;;;;;;;8.18;4.13;;;19.70;58.60;;;;;;5026441;28;114505;-79
2023/09/20 02:28:03;;;;;;;8.75;4.18;;;19.60;58.30;;;;;;5026544;28;114403;-79
2023/09/20 02:30:35;;;;;;;8.30;3.88;;;19.50;58.90;;;;;;5007195;28;115035;-79
2023/09/20 02:33:07;;;;;;;9.48;4.53;;;19.60;58.90;;;;;;5007498;28;114803;-79
2023/09/20 02:35:36;;;;;;;7.32;4.10;;;19.60;58.70;;;;;;4992610;28;114355;-80
2023/09/20 02:38:05;;;;;;;9.18;5.22;;;19.50;58.90;;;;;;5026284;28;113958;-80
2023/09/20 02:40:35;;;;;;;7.93;4.55;;;19.60;57.50;;;;;;4991290;28;115003;-79
2023/09/20 02:43:12;;;;;;;10.68;5.03;;;19.50;58.10;;;;;;4991641;28;114674;-79
2023/09/20 02:45:40;;;;;;;7.90;4.20;;;19.50;57.90;;;;;;5011470;28;114401;-79
2023/09/20 02:48:08;;;;;;;13.38;6.50;;;19.40;58.80;;;;;;4995767;28;114317;-79
2023/09/20 02:50:36;;;;;;;9.32;4.20;;;19.40;57.40;;;;;;5010699;28;114816;-80
2023/09/20 02:53:05;;;;;;;7.70;3.78;;;19.30;58.90;;;;;;4993966;28;114578;-78
2023/09/20 02:55:34;;;;;;;6.82;3.90;;;19.30;58.90;;;;;;4962202;28;114068;-79
2023/09/20 02:58:01;;;;;;;7.05;3.78;;;19.40;59.20;;;;;;5011493;28;114156;-79
2023/09/20 03:00:30;;;;;;;10.98;5.28;;;19.40;59.10;;;;;;5010433;28;115015;-79
2023/09/20 03:03:02;;;;;;;9.82;4.10;;;19.50;58.10;;;;;;5010416;28;114845;-80
2023/09/20 03:05:31;;;;;;;7.40;4.07;;;19.50;58.60;;;;;;5011400;28;114363;-80
2023/09/20 03:08:04;;;;;;;10.50;4.80;;;19.60;58.70;;;;;;5011627;28;114616;-79
2023/09/20 03:10:33;;;;;;;8.55;4.88;;;19.60;58.40;;;;;;4993490;28;116268;-80
2023/09/20 03:13:03;;;;;;;8.77;4.10;;;19.60;58.50;;;;;;5010369;28;114705;-80
2023/09/20 03:15:32;;;;;;;8.52;4.70;;;19.60;58.60;;;;;;4993858;28;114091;-80
2023/09/20 03:18:02;;;;;;;9.20;4.75;;;19.50;58.40;;;;;;4993755;28;114337;-79
2023/09/20 03:20:32;;;;;;;10.57;5.28;;;19.50;58.40;;;;;;4975864;28;115722;-80
2023/09/20 03:23:04;;;;;;;10.53;4.93;;;19.50;57.80;;;;;;4992660;28;117267;-79
2023/09/20 03:25:36;;;;;;;8.25;5.13;;;19.40;57.70;;;;;;4994388;28;114153;-79
2023/09/20 03:28:24;;;;;;;6.90;4.13;;;19.40;57.40;;;;;;5028164;28;114350;-79
2023/09/20 03:30:55;;;;;;;8.52;4.28;;;19.20;58.30;;;;;;5010156;28;117253;-79
2023/09/20 03:33:23;;;;;;;7.00;4.55;;;19.10;58.60;;;;;;4993782;28;116823;-80
2023/09/20 03:35:52;;;;;;;9.18;4.90;;;19.10;58.30;;;;;;5029187;28;114215;-80
2023/09/20 03:38:21;;;;;;;8.25;4.50;;;19.20;58.90;;;;;;5029448;28;114574;-79
2023/09/20 03:40:50;;;;;;;10.07;4.35;;;19.20;58.20;;;;;;5008485;28;115468;-79
2023/09/20 03:43:17;;;;;;;8.63;4.40;;;19.20;58.50;;;;;;4992725;28;115765;-79
2023/09/20 03:45:51;;;;;;;6.50;4.28;;;19.10;58.00;;;;;;5010199;28;114336;-79
2023/09/20 03:48:20;;;;;;;6.63;4.15;;;19.10;58.60;;;;;;5010477;28;114464;-79
2023/09/20 03:50:49;;;;;;;8.68;5.18;;;19.00;59.20;;;;;;5009942;28;117226;-79
2023/09/20 03:53:16;;;;;;;9.82;4.47;;;19.10;57.60;;;;;;5028574;28;114695;-80
2023/09/20 03:55:48;;;;;;;6.95;4.50;;;19.00;58.00;;;;;;4995292;28;114082;-79
2023/09/20 03:58:17;;;;;;;7.20;4.03;;;18.90;58.80;;;;;;4994399;28;114311;-79
2023/09/20 04:00:45;;;;;;;7.32;4.78;;;18.80;58.40;;;;;;4992603;28;115740;-80
2023/09/20 04:03:13;;;;;;;6.85;4.03;;;18.80;58.20;;;;;;4993373;28;114754;-79
2023/09/20 04:05:41;;;;;;;6.85;4.57;;;18.80;58.30;;;;;;5010462;28;114389;-79
2023/09/20 04:08:16;;;;;;;9.73;5.00;;;18.80;59.30;;;;;;4994268;28;114385;-79
2023/09/20 04:10:45;;;;;;;7.47;3.95;;;18.80;59.60;;;;;;4993196;28;115303;-79
2023/09/20 04:13:14;;;;;;;8.50;4.50;;;18.90;59.00;;;;;;5008170;28;114850;-78
2023/09/20 04:15:42;;;;;;;7.43;4.10;;;18.90;59.50;;;;;;5009193;28;114226;-80
2023/09/20 04:18:15;;;;;;;7.13;3.97;;;19.00;59.10;;;;;;4976110;28;114376;-79
2023/09/20 04:20:46;;;;;;;7.78;4.50;;;19.00;58.40;;;;;;4993167;28;114837;-79
2023/09/20 04:23:14;;;;;;;7.47;3.97;;;19.10;58.80;;;;;;4993325;28;114827;-79
2023/09/20 04:25:43;;;;;;;6.88;4.30;;;19.10;58.70;;;;;;5010021;28;114441;-79
2023/09/20 04:28:10;;;;;;;7.75;4.38;;;19.10;58.80;;;;;;4993643;28;114091;-79
2023/09/20 04:30:38;;;;;;;6.03;3.60;;;19.20;58.30;;;;;;5009097;28;115177;-79
2023/09/20 04:33:10;;;;;;;8.23;4.30;;;19.10;58.50;;;;;;5009205;28;114775;-79
2023/09/20 04:35:40;;;;;;;6.10;3.75;;;19.20;57.50;;;;;;4992721;28;114079;-79
2023/09/20 04:38:12;;;;;;;6.35;3.80;;;19.00;58.50;;;;;;5009888;28;114349;-79
2023/09/20 04:40:40;;;;;;;6.50;4.03;;;18.90;58.60;;;;;;5008753;28;114979;-78
2023/09/20 04:43:07;;;;;;;7.25;4.22;;;18.90;58.70;;;;;;5008726;28;117574;-79
2023/09/20 04:45:35;;;;;;;6.93;4.00;;;19.00;58.90;;;;;;4993257;28;114245;-79
2023/09/20 04:48:06;;;;;;;7.47;4.55;;;19.00;59.00;;;;;;4993846;28;114457;-79
2023/09/20 04:50:34;;;;;;;7.63;5.18;;;19.00;59.10;;;;;;4992491;28;114918;-79
2023/09/20 04:53:02;;;;;;;8.95;4.90;;;19.10;58.30;;;;;;5008890;28;115172;-79
2023/09/20 04:55:33;;;;;;;7.78;3.88;;;19.20;58.70;;;;;;4991964;28;114428;-80
2023/09/20 04:58:01;;;;;;;7.07;4.57;;;19.20;58.70;;;;;;5027370;28;114141;-79
2023/09/20 05:00:37;;;;;;;6.80;3.80;;;19.30;58.20;;;;;;5008010;28;114885;-79
2023/09/20 05:03:07;;;;;;;11.10;5.88;;;19.50;58.30;;;;;;4993133;28;115836;-80
2023/09/20 05:05:34;;;;;;;7.93;4.75;;;19.70;57.00;;;;;;5026862;27;114450;-80
2023/09/20 05:08:04;;;;;;;7.78;4.43;;;19.80;57.00;;;;;;5008161;28;114396;-79
2023/09/20 05:10:32;;;;;;;9.25;5.07;;;19.80;56.70;;;;;;5008328;28;114916;-80
2023/09/20 05:13:00;;;;;;;8.20;4.00;;;19.80;55.90;;;;;;4991840;28;114642;-79
2023/09/20 05:15:27;;;;;;;7.47;3.85;;;19.90;56.50;;;;;;5009284;28;114527;-80
2023/09/20 05:17:56;;;;;;;7.95;4.32;;;19.90;56.20;;;;;;5008511;28;114365;-79
2023/09/20 05:20:24;;;;;;;8.80;4.45;;;20.10;55.70;;;;;;4974266;28;116256;-79
2023/09/20 05:22:52;;;;;;;6.35;3.63;;;20.20;55.50;;;;;;5008073;28;114685;-79
2023/09/20 05:25:19;;;;;;;10.15;4.32;;;20.20;55.80;;;;;;5008301;28;114078;-79
2023/09/20 05:27:47;;;;;;;5.88;3.60;;;20.30;54.90;;;;;;5007512;28;114240;-81
2023/09/20 05:30:16;;;;;;;7.47;3.90;;;20.40;55.40;;;;;;5007286;28;114945;-79
2023/09/20 05:32:43;;;;;;;7.78;4.03;;;20.50;55.10;;;;;;5007854;28;114626;-79
2023/09/20 05:35:11;;;;;;;6.80;3.83;;;20.70;54.00;;;;;;4991830;28;114346;-79
2023/09/20 05:37:39;;;;;;;7.82;4.00;;;20.80;54.10;;;;;;5026863;28;114129;-79
2023/09/20 05:40:13;;;;;;;6.15;3.55;;;20.90;53.40;;;;;;5026052;28;114866;-79
2023/09/20 05:42:41;;;;;;;11.48;3.90;;;21.00;53.60;;;;;;5025958;28;114668;-79
2023/09/20 05:45:08;;;;;;;6.68;3.10;;;21.10;53.60;;;;;;5008741;28;114226;-78
2023/09/20 05:47:36;;;;;;;6.50;3.47;;;21.20;53.10;;;;;;5008728;28;114299;-79
2023/09/20 05:50:04;;;;;;;5.75;3.10;;;21.10;52.70;;;;;;5025114;28;115395;-79
2023/09/20 05:52:32;;;;;;;4.88;3.03;;;21.20;52.50;;;;;;4991552;28;114666;-79
2023/09/20 05:54:59;;;;;;;5.03;3.17;;;21.20;52.20;;;;;;5008767;28;114309;-79
2023/09/20 05:57:27;;;;;;;5.43;2.63;;;21.00;52.40;;;;;;5007291;28;114433;-79
2023/09/20 05:59:56;;;;;;;4.57;3.10;;;21.00;52.30;;;;;;5025031;28;114929;-79
2023/09/20 06:02:25;;;;;;;5.28;3.00;;;21.00;52.30;;;;;;5007349;28;114624;-80
2023/09/20 06:04:52;;;;;;;4.50;2.67;;;21.00;52.60;;;;;;4991470;28;114255;-80
2023/09/20 06:07:20;;;;;;;4.65;2.55;;;21.10;52.50;;;;;;5008348;28;114105;-79
2023/09/20 06:09:47;;;;;;;4.93;2.95;;;21.10;52.30;;;;;;4990800;28;115201;-80
2023/09/20 06:12:14;;;;;;;4.70;2.75;;;21.20;52.40;;;;;;5024993;28;114581;-79
2023/09/20 06:14:41;;;;;;;4.78;2.80;;;21.30;52.00;;;;;;5024328;28;114138;-78
2023/09/20 06:17:08;;;;;;;6.53;2.83;;;21.40;51.40;;;;;;5007829;27;114346;-79
2023/09/20 06:19:35;;;;;;;6.30;3.10;;;21.40;51.50;;;;;;4993394;28;119258;-80
2023/09/20 06:22:03;;;;;;;4.82;2.47;;;21.40;51.80;;;;;;5028612;28;115128;-79
2023/09/20 06:24:30;;;;;;;4.95;2.90;;;21.50;51.20;;;;;;5028487;28;114043;-79
2023/09/20 06:26:58;;;;;;;4.28;2.78;;;21.60;51.20;;;;;;5011995;28;114436;-78
2023/09/20 06:29:26;;;;;;;4.22;3.05;;;21.80;51.00;;;;;;5029049;28;114960;-80
2023/09/20 06:31:54;;;;;;;6.50;3.13;;;21.80;50.50;;;;;;5010398;28;114682;-80
2023/09/20 06:34:24;;;;;;;4.95;2.70;;;21.90;50.50;;;;;;5011910;28;114253;-80
2023/09/20 06:36:51;;;;;;;6.38;3.55;;;21.80;50.30;;;;;;5028532;28;114680;-81
2023/09/20 06:39:19;;;;;;;7.20;3.75;;;21.70;50.50;;;;;;5027785;28;114996;-79
2023/09/20 06:41:46;;;;;;;7.55;4.68;;;21.50;51.20;;;;;;5010527;28;115624;-79
2023/09/20 06:44:15;;;;;;;21.25;12.05;;;21.50;51.40;;;;;;4994046;28;114380;-79
2023/09/20 06:46:42;;;;;;;11.48;6.32;;;21.60;51.20;;;;;;5029523;28;114149;-80
2023/09/20 06:49:09;;;;;;;7.10;3.38;;;21.60;51.20;;;;;;5028508;28;115060;-79
2023/09/20 06:51:37;;;;;;;7.20;3.13;;;21.60;50.80;;;;;;5010756;28;115570;-79
2023/09/20 06:54:05;;;;;;;7.93;3.97;;;21.70;51.00;;;;;;5029181;28;114039;-80
2023/09/20 06:56:32;;;;;;;11.90;4.82;;;21.70;51.00;;;;;;5029193;28;114441;-80
2023/09/20 06:59:01;;;;;;;8.20;4.07;;;21.70;51.10;;;;;;5028143;28;116717;-79
2023/09/20 07:01:29;;;;;;;8.75;4.80;;;21.80;51.20;;;;;;5028415;28;114764;-80
2023/09/20 07:03:56;;;;;;;8.77;3.78;;;21.80;50.90;;;;;;5028041;28;114090;-80
2023/09/20 07:06:24;;;;;;;6.97;3.72;;;21.90;50.70;;;;;;5028930;28;114434;-78
2023/09/20 07:08:52;;;;;;;6.43;3.92;;;22.00;50.60;;;;;;5010592;28;115362;-80
2023/09/20 07:11:19;;;;;;;7.57;4.55;;;22.00;50.30;;;;;;5028129;28;115077;-78
2023/09/20 07:13:46;;;;;;;6.68;3.72;;;22.10;50.10;;;;;;5010771;28;114047;-79
2023/09/20 07:16:31;;;;;;;6.25;4.07;;;22.10;49.80;;;;;;4979971;28;114234;-81
2023/09/20 07:19:04;;;;;;;5.47;3.30;;;22.10;50.20;;;;;;5009342;28;115249;-80
2023/09/20 07:21:37;;;;;;;7.32;3.28;;;22.10;50.20;;;;;;5027512;28;115796;-79
2023/09/20 07:24:06;;;;;;;4.22;2.78;;;22.10;50.00;;;;;;5010069;28;114137;-80
2023/09/20 07:26:33;;;;;;;3.83;2.58;;;22.10;50.10;;;;;;4994233;28;114367;-80
2023/09/20 07:29:01;;;;;;;5.88;3.30;;;22.20;50.10;;;;;;5008468;28;118170;-80
2023/09/20 07:31:28;;;;;;;6.10;3.10;;;22.30;49.70;;;;;;5028111;28;115122;-79
2023/09/20 07:33:56;;;;;;;5.18;2.88;;;22.30;49.70;;;;;;5010329;28;114209;-79
2023/09/20 07:36:23;;;;;;;5.30;2.97;;;22.30;50.00;;;;;;5027996;28;114454;-80
2023/09/20 07:39:07;;;;;;;5.57;3.00;;;22.40;49.30;;;;;;5009194;28;115390;-78
2023/09/20 07:41:36;;;;;;;7.47;2.85;;;22.40;48.80;;;;;;5027148;28;114559;-80
2023/09/20 07:44:05;;;;;;;4.85;2.63;;;22.40;49.10;;;;;;4994276;28;114527;-79
2023/09/20 07:46:35;;;;;;;5.88;2.97;;;22.40;49.00;;;;;;5010829;28;114229;-79
2023/09/20 07:49:09;;;;;;;4.60;2.40;;;22.50;48.90;;;;;;4993001;28;114981;-80
2023/09/20 07:51:37;;;;;;;5.82;2.63;;;22.50;48.70;;;;;;5008924;28;114691;-80
2023/09/20 07:54:06;;;;;;;5.38;2.53;;;22.50;48.60;;;;;;4960426;28;114260;-80
2023/09/20 07:56:34;;;;;;;5.68;2.60;;;22.30;48.40;;;;;;5009922;28;114465;-80
2023/09/20 07:59:04;;;;;;;5.18;2.50;;;22.30;49.10;;;;;;5008806;28;117028;-80
2023/09/20 08:01:32;;;;;;;5.93;3.03;;;22.50;48.80;;;;;;5026971;28;114634;-79
2023/09/20 08:03:59;;;;;;;8.25;3.85;;;22.60;48.50;;;;;;5027631;28;114068;-79
2023/09/20 08:06:29;;;;;;;5.10;2.78;;;22.70;49.00;;;;;;4992456;28;114491;-79
2023/09/20 08:08:57;;;;;;;4.85;2.50;;;22.90;48.20;;;;;;5007889;28;115450;-80
2023/09/20 08:11:25;;;;;;;3.22;1.77;;;22.90;46.90;;;;;;4992116;28;115200;-78
2023/09/20 08:13:54;;;;;;;3.30;1.65;;;23.00;45.90;;;;;;4993220;28;114114;-79
2023/09/20 08:16:22;;;;;;;3.92;1.90;;;23.10;45.70;;;;;;4975694;28;114783;-80
2023/09/20 08:19:03;;;;;;;5.47;1.92;;;23.20;46.10;;;;;;5009128;28;114941;-79
2023/09/20 08:21:34;;;;;;;3.78;1.65;;;23.20;46.20;;;;;;5026522;28;114674;-80
2023/09/20 09:00:29;;;;;;;5.13;1.70;;;23.70;43.30;;;;;;5026723;28;114240;-80
2023/09/20 09:02:58;;;;;;;3.30;1.45;;;23.70;43.90;;;;;;5008821;28;114953;-80
2023/09/20 09:05:27;;;;;;;4.53;1.77;;;23.70;43.30;;;;;;5028774;28;114601;-80
2023/09/20 09:07:56;;;;;;;4.22;1.60;;;23.70;43.20;;;;;;4977873;28;114448;-79
2023/09/20 09:10:24;;;;;;;3.90;1.40;;;23.80;43.30;;;;;;5026763;28;114102;-80
2023/09/20 09:12:51;;;;;;;3.83;1.40;;;23.80;43.10;;;;;;5007596;28;115475;-79
2023/09/20 09:15:21;;;;;;;2.90;1.50;;;23.80;42.70;;;;;;5025811;28;114652;-79
2023/09/20 09:17:48;;;;;;;2.35;1.20;;;23.90;42.60;;;;;;5026677;28;114308;-79
2023/09/20 09:20:19;;;;;;;2.53;1.30;;;23.90;42.60;;;;;;5026719;28;114332;-81
2023/09/20 09:22:47;;;;;;;5.22;1.50;;;23.90;42.60;;;;;;5025591;28;116188;-81
2023/09/20 09:25:30;;;;;;;2.50;1.35;;;23.80;41.90;;;;;;4975210;28;114965;-80
2023/09/20 09:27:59;;;;;;;3.35;1.55;;;23.80;42.60;;;;;;5027305;28;114108;-80
2023/09/20 09:30:26;;;;;;;2.53;1.17;;;23.80;42.80;;;;;;5027435;28;114158;-79
2023/09/20 09:32:53;;;;;;;2.85;1.30;;;23.80;42.10;;;;;;5007808;28;115111;-80
2023/09/20 09:35:21;;;;;;;2.63;1.40;;;23.90;42.30;;;;;;5007555;28;116056;-79
2023/09/20 09:38:06;;;;;;;2.95;1.67;;;24.00;42.20;;;;;;5010869;28;114184;-81
2023/09/20 09:40:53;;;;;;;5.53;1.60;;;24.00;42.00;;;;;;5027364;28;113925;-80
2023/09/20 09:43:23;;;;;;;3.58;1.33;;;24.10;42.00;;;;;;5008906;28;114919;-80
2023/09/20 09:45:54;;;;;;;3.72;1.50;;;24.10;42.70;;;;;;5025834;28;114709;-80
2023/09/20 09:48:24;;;;;;;3.58;1.65;;;24.10;42.10;;;;;;4993182;28;114901;-80
2023/09/20 09:50:52;;;;;;;1.67;1.10;;;24.10;41.30;;;;;;5009539;28;114315;-81
2023/09/20 09:53:20;;;;;;;2.53;1.20;;;24.00;41.40;;;;;;4992239;28;116146;-79
2023/09/20 09:55:50;;;;;;;3.22;1.23;;;24.00;42.00;;;;;;5011999;28;114402;-79
2023/09/20 09:58:17;;;;;;;3.80;1.25;;;24.00;41.80;;;;;;4978440;28;114637;-78
2023/09/20 10:00:48;;;;;;;4.97;1.60;;;24.10;42.30;;;;;;5029948;28;114248;-80
2023/09/20 10:03:29;;;;;;;3.33;1.30;;;24.10;41.80;;;;;;5028127;28;115701;-80
2023/09/20 10:06:08;;;;;;;3.20;1.23;;;24.10;41.40;;;;;;5010070;28;115744;-79
2023/09/20 10:08:38;;;;;;;3.03;1.20;;;24.10;41.30;;;;;;5029552;28;114083;-80
2023/09/20 10:11:08;;;;;;;4.57;1.65;;;24.10;41.30;;;;;;5029347;28;114363;-79
2023/09/20 10:13:36;;;;;;;2.58;1.08;;;24.10;42.30;;;;;;5028112;28;116152;-81
2023/09/20 10:16:05;;;;;;;4.30;1.20;;;24.20;41.10;;;;;;4993416;28;114817;-79
2023/09/20 10:18:51;;;;;;;3.20;1.40;;;24.20;41.00;;;;;;5007720;28;114228;-80
2023/09/20 10:21:26;;;;;;;3.15;1.25;;;24.20;41.50;;;;;;5009508;28;114133;-81
2023/09/20 10:23:54;;;;;;;3.83;1.50;;;24.20;41.30;;;;;;4974591;28;115227;-80
2023/09/20 10:26:21;;;;;;;2.80;1.40;;;24.20;41.30;;;;;;5008106;28;114594;-79
2023/09/20 10:28:52;;;;;;;3.55;1.23;;;24.30;41.30;;;;;;5008793;28;114097;-79
2023/09/20 10:31:20;;;;;;;4.53;1.95;;;24.30;41.20;;;;;;5008875;28;114079;-79
2023/09/20 10:33:48;;;;;;;4.18;1.40;;;24.30;41.30;;;;;;5008089;28;115271;-79
2023/09/20 10:36:19;;;;;;;2.55;1.30;;;24.30;40.80;;;;;;5008018;28;114797;-80
2023/09/20 10:38:47;;;;;;;3.17;1.48;;;24.30;41.10;;;;;;5007570;28;114284;-78
2023/09/20 10:41:14;;;;;;;3.10;1.25;;;24.30;40.80;;;;;;5008847;28;114343;-79
2023/09/20 10:43:43;;;;;;;3.90;1.45;;;24.30;41.20;;;;;;5006462;28;115004;-79
2023/09/20 10:46:15;;;;;;;3.85;1.30;;;24.40;40.80;;;;;;5008575;28;114582;-80
2023/09/20 10:48:48;;;;;;;3.03;1.10;;;24.40;40.60;;;;;;5008993;28;114378;-80
2023/09/20 10:51:38;;;;;;;3.13;1.50;;;24.40;40.90;;;;;;5007677;28;114453;-80
2023/09/20 10:54:19;;;;;;;6.43;1.70;;;24.50;41.10;;;;;;5006261;28;114952;-80
2023/09/20 10:56:54;;;;;;;2.30;1.20;;;24.50;41.00;;;;;;5008007;28;114680;-80
2023/09/20 10:59:25;;;;;;;1.90;1.00;;;24.50;40.20;;;;;;5008561;28;114534;-80
2023/09/20 11:01:58;;;;;;;4.15;1.30;;;24.50;40.10;;;;;;4991331;28;114095;-80
2023/09/20 11:04:25;;;;;;;3.08;1.70;;;24.60;40.20;;;;;;5006699;28;116309;-81
2023/09/20 11:06:53;;;;;;;2.90;1.48;;;24.50;40.50;;;;;;5008034;28;114615;-81
2023/09/20 11:09:24;;;;;;;3.30;1.27;;;24.60;40.50;;;;;;4991020;28;114496;-81
2023/09/20 11:11:51;;;;;;;3.45;1.20;;;24.60;40.80;;;;;;5008996;28;114344;-81
2023/09/20 11:14:23;;;;;;;3.25;1.40;;;24.60;41.10;;;;;;5006520;28;115122;-80
2023/09/20 11:16:51;;;;;;;2.95;1.13;;;24.60;40.20;;;;;;5007776;28;114600;-79
2023/09/20 11:19:19;;;;;;;3.90;1.65;;;24.60;40.20;;;;;;5008082;28;114462;-80
2023/09/20 11:21:47;;;;;;;2.60;1.23;;;24.50;40.00;;;;;;5008429;28;114248;-80
2023/09/20 11:24:15;;;;;;;5.30;1.40;;;24.40;39.50;;;;;;5007455;28;114955;-80
2023/09/20 11:27:00;;;;;;;3.03;1.17;;;24.30;40.10;;;;;;5007592;28;114963;-80
2023/09/20 11:29:27;;;;;;;2.50;1.20;;;24.30;40.60;;;;;;5008393;28;114119;-80
2023/09/20 11:31:58;;;;;;;2.78;1.40;;;24.40;39.90;;;;;;5007160;28;114402;-79
2023/09/20 11:34:28;;;;;;;3.92;1.77;;;24.30;40.10;;;;;;5006233;28;115012;-80
2023/09/20 11:36:56;;;;;;;2.60;1.40;;;24.30;40.80;;;;;;5007581;28;114708;-80
2023/09/20 11:39:30;;;;;;;2.75;1.48;;;24.40;40.20;;;;;;5008070;28;114217;-80
2023/09/20 11:41:59;;;;;;;2.95;1.73;;;24.40;40.50;;;;;;5007013;28;114405;-79
2023/09/20 11:44:26;;;;;;;3.65;1.52;;;24.40;41.00;;;;;;5004817;28;116425;-79
2023/09/20 11:46:54;;;;;;;2.38;1.30;;;24.40;40.40;;;;;;4988803;28;118395;-80
2023/09/20 11:49:26;;;;;;;4.45;1.50;;;24.30;40.40;;;;;;5008019;28;114168;-80
2023/09/20 11:51:54;;;;;;;3.63;1.25;;;24.30;40.30;;;;;;5007898;28;114164;-80
2023/09/20 11:54:28;;;;;;;3.83;1.65;;;24.40;40.00;;;;;;5005871;28;115608;-80
2023/09/20 11:56:59;;;;;;;3.15;1.27;;;24.40;39.80;;;;;;5006608;28;115648;-80
2023/09/20 11:59:27;;;;;;;2.78;1.20;;;24.50;39.70;;;;;;5006685;28;114241;-78
2023/09/20 12:01:54;;;;;;;3.17;1.33;;;24.50;39.50;;;;;;5006962;28;114204;-79
2023/09/20 12:04:21;;;;;;;2.80;1.20;;;24.50;39.40;;;;;;5006770;28;114899;-78
2023/09/20 12:06:51;;;;;;;4.43;1.77;;;24.40;39.50;;;;;;5006722;28;114605;-78
2023/09/20 12:09:18;;;;;;;4.53;1.40;;;24.40;39.50;;;;;;5005639;28;114319;-79
2023/09/20 12:11:45;;;;;;;3.25;1.48;;;24.40;39.80;;;;;;5007678;28;114003;-79
2023/09/20 12:14:14;;;;;;;2.75;1.20;;;24.40;40.20;;;;;;5005323;28;114955;-79
2023/09/20 12:16:47;;;;;;;2.70;1.30;;;24.60;40.10;;;;;;5006220;28;115136;-79
2023/09/20 12:19:15;;;;;;;2.50;1.30;;;24.50;39.90;;;;;;5005837;28;114342;-79
2023/09/20 12:21:44;;;;;;;3.15;1.20;;;24.50;39.70;;;;;;5007369;28;114081;-80
2023/09/20 12:24:28;;;;;;;3.50;1.45;;;24.50;39.10;;;;;;5005137;28;115052;-79
2023/09/20 12:26:56;;;;;;;2.50;1.30;;;24.50;39.20;;;;;;5006122;28;117454;-79
2023/09/20 12:29:23;;;;;;;3.65;1.42;;;24.50;39.10;;;;;;5007444;28;114255;-79
2023/09/20 12:31:52;;;;;;;3.17;1.30;;;24.50;38.60;;;;;;4989670;28;114202;-80
2023/09/20 12:34:19;;;;;;;2.55;1.20;;;24.50;38.50;;;;;;4988292;28;115012;-81
2023/09/20 12:36:46;;;;;;;4.88;1.58;;;24.40;39.10;;;;;;5005129;28;114525;-80
2023/09/20 12:39:14;;;;;;;2.42;1.35;;;24.40;39.20;;;;;;5007428;28;115326;-80
2023/09/20 12:41:42;;;;;;;2.33;1.27;;;24.40;39.80;;;;;;5007527;28;114063;-79
2023/09/20 12:44:11;;;;;;;2.65;1.25;;;24.30;39.50;;;;;;5006163;28;114944;-80
2023/09/20 12:46:38;;;;;;;2.92;1.50;;;24.30;39.60;;;;;;5006219;28;114684;-79
2023/09/20 12:49:06;;;;;;;2.53;1.20;;;24.30;39.50;;;;;;5006808;28;114303;-80
2023/09/20 12:51:33;;;;;;;2.63;1.15;;;24.30;39.20;;;;;;5007572;28;114370;-80
2023/09/20 12:54:03;;;;;;;2.90;1.20;;;24.30;39.10;;;;;;4988717;28;115061;-82
2023/09/20 12:56:31;;;;;;;2.28;1.17;;;24.30;39.00;;;;;;5006014;28;114752;-81
2023/09/20 12:58:58;;;;;;;2.78;1.23;;;24.30;38.80;;;;;;5005674;28;114256;-79
2023/09/20 13:01:25;;;;;;;3.17;1.30;;;24.30;38.80;;;;;;5006578;28;114099;-80
2023/09/20 13:03:53;;;;;;;3.00;1.30;;;24.30;38.60;;;;;;5004388;28;118087;-78
2023/09/20 13:06:21;;;;;;;2.53;1.27;;;24.30;38.70;;;;;;5004451;28;114565;-79
2023/09/20 13:08:48;;;;;;;2.55;1.40;;;24.30;38.80;;;;;;5005584;28;114136;-80
2023/09/20 13:11:17;;;;;;;2.55;1.40;;;24.30;39.00;;;;;;5006868;28;114237;-80
2023/09/20 13:13:44;;;;;;;4.03;1.30;;;24.30;38.50;;;;;;5004464;28;114867;-80
2023/09/20 13:16:13;;;;;;;2.42;1.40;;;24.30;38.70;;;;;;5005890;28;115154;-80
2023/09/20 13:18:40;;;;;;;3.95;1.67;;;24.30;38.40;;;;;;4987795;28;114267;-79
2023/09/20 13:21:07;;;;;;;2.50;1.17;;;24.30;38.60;;;;;;5004964;28;114694;-80
2023/09/20 13:23:34;;;;;;;3.55;1.30;;;24.30;37.90;;;;;;5005146;28;114992;-80